Time;durP1;ratioP1;P1;durP2;ratioP2;P2;SDS_P1;SDS_P2;PMS_P1;PMS_P2;Temp;Humidity;BMP_temperature;BMP_pressure;BME280_temperature;BME280_humidity;BME280_pressure;Samples;Min_cycle;Max_cycle;Signal;HPM_P1;HPM_P2
2022/12/10 00:04:37;;;;;;;75.80;47.67;;;;;;;-0.15;89.84;99609.27;3205454;86;22107;-74
2022/12/10 00:09:28;;;;;;;77.95;47.27;;;;;;;-0.15;89.84;99605.44;3174529;88;21072;-74
2022/12/10 00:14:19;;;;;;;76.95;48.13;;;;;;;-0.15;89.83;99602.88;3173513;88;21591;-74
2022/12/10 00:19:10;;;;;;;71.62;45.28;;;;;;;-0.13;89.94;99605.50;3189299;88;21544;-74
2022/12/10 00:24:03;;;;;;;78.72;49.30;;;;;;;-0.11;89.88;99606.02;3159134;88;21052;-74
2022/12/10 00:28:56;;;;;;;72.62;46.58;;;;;;;-0.10;89.93;99597.56;3119427;90;22226;-74
2022/12/10 00:33:48;;;;;;;76.45;47.58;;;;;;;-0.10;89.86;99596.28;3146116;89;21044;-74
2022/12/10 00:38:41;;;;;;;70.22;44.93;;;;;;;-0.08;89.92;99595.94;3158168;88;21544;-75
2022/12/10 00:43:34;;;;;;;78.65;47.17;;;;;;;-0.06;89.93;99598.14;3226866;87;20966;-74
2022/12/10 00:48:25;;;;;;;83.95;46.90;;;;;;;-0.06;89.92;99601.98;3242036;86;21051;-74
2022/12/10 00:53:17;;;;;;;76.28;48.08;;;;;;;-0.06;89.95;99604.53;3220477;87;21080;-74
2022/12/10 00:58:08;;;;;;;82.53;49.50;;;;;;;-0.04;89.94;99608.44;3208604;87;20969;-74
2022/12/10 01:02:59;;;;;;;79.65;47.43;;;;;;;-0.04;89.93;99608.02;3220636;87;21741;-74
2022/12/10 01:07:53;;;;;;;82.53;48.38;;;;;;;-0.03;89.93;99607.22;3198750;86;21044;-74
2022/12/10 01:12:44;;;;;;;77.17;45.03;;;;;;;-0.01;89.98;99600.49;3228821;87;20949;-74
2022/12/10 01:17:35;;;;;;;73.95;43.55;;;;;;;-0.02;89.99;99602.59;3243980;87;21036;-74
2022/12/10 01:22:26;;;;;;;76.75;45.95;;;;;;;-0.01;89.96;99592.83;3129526;89;20985;-74
2022/12/10 01:27:17;;;;;;;74.87;45.38;;;;;;;-0.01;89.94;99598.35;3161819;88;21089;-74
2022/12/10 01:32:11;;;;;;;74.45;45.12;;;;;;;-0.02;89.94;99585.98;3116873;88;20994;-75
2022/12/10 01:37:03;;;;;;;75.67;46.42;;;;;;;-0.01;89.96;99580.05;3136568;89;22048;-74
2022/12/10 01:41:59;;;;;;;73.35;42.27;;;;;;;-0.02;89.91;99573.21;3123340;89;21018;-74
2022/12/10 01:46:55;;;;;;;73.05;40.35;;;;;;;-0.01;89.99;99568.96;3143171;89;21476;-74
2022/12/10 01:51:52;;;;;;;63.17;39.30;;;;;;;-0.01;89.94;99562.16;3143371;89;21362;-74
2022/12/10 01:56:49;;;;;;;70.00;40.92;;;;;;;-0.01;89.96;99572.80;3149777;89;20999;-74
2022/12/10 02:01:55;;;;;;;60.33;37.27;;;;;;;-0.03;89.89;99574.42;3150281;89;21035;-74
2022/12/10 02:07:19;;;;;;;60.33;36.13;;;;;;;-0.03;89.89;99574.42;3143351;89;22098;-74
2022/12/10 02:12:15;;;;;;;65.12;38.42;;;;;;;-0.02;89.93;99578.31;3144268;89;21041;-73
2022/12/10 02:17:14;;;;;;;64.30;37.73;;;;;;;-0.03;89.94;99585.50;3162409;89;21368;-73
2022/12/10 02:22:09;;;;;;;62.27;34.90;;;;;;;-0.03;89.92;99588.06;3188677;87;20970;-74
2022/12/10 02:27:39;;;;;;;55.75;32.17;;;;;;;-0.02;89.94;99578.31;3135934;89;21013;-74
2022/12/10 02:32:37;;;;;;;56.88;33.02;;;;;;;-0.04;89.80;99577.36;3158216;87;21036;-74
2022/12/10 02:37:39;;;;;;;52.93;33.33;;;;;;;-0.04;89.89;99574.80;3153962;88;21070;-75
2022/12/10 02:42:34;;;;;;;52.48;30.32;;;;;;;-0.05;89.85;99573.08;3134057;90;21487;-74
2022/12/10 02:47:26;;;;;;;52.35;29.30;;;;;;;-0.04;89.85;99581.19;3126674;90;21593;-74
2022/12/10 02:52:20;;;;;;;52.35;30.45;;;;;;;-0.05;89.83;99571.80;3157064;88;21017;-74
2022/12/10 02:57:30;;;;;;;45.80;27.22;;;;;;;-0.05;89.81;99573.08;3128788;88;21137;-74
2022/12/10 03:02:57;;;;;;;50.60;28.73;;;;;;;-0.06;89.73;99571.31;3257735;87;21021;-74
2022/12/10 03:08:27;;;;;;;49.13;29.45;;;;;;;-0.07;89.76;99570.86;3250215;87;22151;-74
2022/12/10 03:13:22;;;;;;;46.35;27.55;;;;;;;-0.08;89.75;99556.75;3231048;87;21074;-73
2022/12/10 03:18:17;;;;;;;46.55;27.22;;;;;;;-0.06;89.74;99573.87;3264857;85;20993;-74
2022/12/10 03:23:13;;;;;;;40.80;22.45;;;;;;;-0.08;89.76;99570.38;3267838;86;20978;-74
2022/12/10 03:28:05;;;;;;;38.65;24.57;;;;;;;-0.09;89.75;99568.66;3252378;86;21511;-74
2022/12/10 03:32:56;;;;;;;42.78;24.10;;;;;;;-0.09;89.79;99573.77;3266356;85;21506;-74
2022/12/10 03:37:49;;;;;;;43.48;24.70;;;;;;;-0.11;89.74;99576.64;3222393;87;21510;-74
2022/12/10 03:42:40;;;;;;;37.35;22.30;;;;;;;-0.10;89.76;99584.78;3272011;86;21272;-73
2022/12/10 03:47:32;;;;;;;38.95;22.93;;;;;;;-0.09;89.68;99584.38;3224666;87;21041;-74
2022/12/10 03:52:23;;;;;;;37.70;22.80;;;;;;;-0.10;89.57;99569.45;3222371;87;38847;-74
2022/12/10 03:57:14;;;;;;;37.05;21.45;;;;;;;-0.12;89.56;99578.74;3258392;86;21191;-74
2022/12/10 04:02:06;;;;;;;34.33;20.90;;;;;;;-0.12;89.58;99571.08;3235100;87;20976;-74
2022/12/10 04:06:57;;;;;;;32.73;19.82;;;;;;;-0.13;89.45;99574.42;3228627;87;20991;-74
2022/12/10 04:11:48;;;;;;;32.45;19.42;;;;;;;-0.13;89.43;99574.42;3240154;86;21086;-74
2022/12/10 04:16:40;;;;;;;27.73;18.00;;;;;;;-0.13;89.41;99580.81;3222041;87;21361;-74
2022/12/10 04:26:53;;;;;;;33.25;19.67;;;;;;;-0.14;89.27;99575.25;3260917;86;20999;-74
2022/12/10 04:31:44;;;;;;;27.17;17.37;;;;;;;-0.15;89.40;99579.02;3223777;86;20988;-74
2022/12/10 04:36:35;;;;;;;31.87;21.00;;;;;;;-0.17;89.40;99585.34;3212596;87;21151;-74
2022/12/10 04:41:26;;;;;;;34.48;19.60;;;;;;;-0.17;89.40;99582.78;3130005;89;21017;-74
2022/12/10 04:46:17;;;;;;;35.48;21.37;;;;;;;-0.17;89.44;99575.13;3197039;88;21032;-74
2022/12/10 04:51:08;;;;;;;36.77;21.37;;;;;;;-0.16;89.41;99577.27;3172377;88;21031;-74
2022/12/10 04:56:00;;;;;;;38.45;21.62;;;;;;;-0.17;89.44;99567.45;3166028;87;21021;-74
2022/12/10 05:00:51;;;;;;;35.43;20.52;;;;;;;-0.15;89.38;99591.38;3193190;87;20965;-74
2022/12/10 05:05:42;;;;;;;32.25;20.27;;;;;;;-0.14;89.45;99588.03;3205725;87;21133;-73
2022/12/10 05:10:35;;;;;;;36.75;20.85;;;;;;;-0.14;89.41;99593.14;3130587;89;21529;-73
2022/12/10 05:15:26;;;;;;;36.60;21.02;;;;;;;-0.13;89.39;99589.76;3220110;87;22367;-74
2022/12/10 05:20:17;;;;;;;38.78;24.07;;;;;;;-0.12;89.43;99595.77;3208915;87;21015;-74
2022/12/10 05:25:09;;;;;;;38.15;21.15;;;;;;;-0.10;89.50;99590.31;3134060;89;21702;-74
2022/12/10 05:29:59;;;;;;;39.75;21.02;;;;;;;-0.10;89.44;99595.00;3237473;87;20954;-74
2022/12/10 05:34:50;;;;;;;37.95;21.20;;;;;;;-0.10;89.40;99600.12;3237963;87;21001;-74
2022/12/10 05:39:41;;;;;;;35.95;19.73;;;;;;;-0.09;89.43;99604.43;3195080;87;21078;-74
2022/12/10 05:44:32;;;;;;;36.15;20.02;;;;;;;-0.11;89.35;99607.71;3178490;87;21750;-74
2022/12/10 05:49:23;;;;;;;30.88;17.80;;;;;;;-0.11;89.39;99611.13;3205400;87;21289;-74
2022/12/10 05:54:14;;;;;;;29.52;16.45;;;;;;;-0.11;89.48;99614.97;3201670;87;20983;-74
2022/12/10 05:59:06;;;;;;;30.00;17.27;;;;;;;-0.09;89.45;99616.31;3174947;87;21037;-74
2022/12/10 06:04:00;;;;;;;30.80;17.45;;;;;;;-0.09;89.38;99618.86;3191431;88;20984;-73
2022/12/10 06:08:52;;;;;;;32.30;17.05;;;;;;;-0.08;89.47;99621.48;3185724;88;20994;-73
2022/12/10 06:13:44;;;;;;;32.65;16.97;;;;;;;-0.09;89.43;99627.42;3177525;88;20946;-74
2022/12/10 06:18:36;;;;;;;30.08;17.07;;;;;;;-0.07;89.42;99621.08;3211726;87;21013;-74
2022/12/10 06:23:27;;;;;;;29.92;16.87;;;;;;;-0.07;89.50;99621.97;3178394;88;21503;-74
2022/12/10 06:28:18;;;;;;;28.45;15.98;;;;;;;-0.07;89.48;99609.20;3188729;88;21117;-74
2022/12/10 06:33:09;;;;;;;34.08;17.42;;;;;;;-0.06;89.52;99613.89;3171122;88;21276;-73
2022/12/10 06:38:00;;;;;;;33.53;17.67;;;;;;;-0.06;89.56;99624.98;3208171;87;20991;-73
2022/12/10 06:42:52;;;;;;;34.43;17.77;;;;;;;-0.05;89.52;99632.27;3259208;85;21003;-73
2022/12/10 06:47:43;;;;;;;31.70;17.67;;;;;;;-0.05;89.57;99633.13;3213649;87;21659;-74
2022/12/10 06:52:34;;;;;;;36.53;18.32;;;;;;;-0.04;89.58;99650.19;3125286;89;20982;-74
2022/12/10 06:57:25;;;;;;;39.13;19.95;;;;;;;-0.02;89.58;99651.53;3232421;87;21077;-74
2022/12/10 07:02:16;;;;;;;36.98;17.98;;;;;;;-0.02;89.62;99650.26;3224763;86;21064;-74
2022/12/10 07:07:08;;;;;;;40.65;21.45;;;;;;;0.01;89.67;99646.98;3216946;87;20970;-75
2022/12/10 07:11:59;;;;;;;38.45;19.85;;;;;;;0.02;89.69;99637.20;3115501;89;21799;-74
2022/12/10 07:16:51;;;;;;;34.43;18.23;;;;;;;0.04;89.74;99650.95;3123396;89;21556;-74
2022/12/10 07:21:43;;;;;;;40.78;21.80;;;;;;;0.06;89.74;99655.30;3208289;88;22224;-73
2022/12/10 07:26:37;;;;;;;35.43;18.92;;;;;;;0.10;89.80;99648.63;3164022;88;21014;-74
2022/12/10 07:31:29;;;;;;;34.23;19.55;;;;;;;0.12;89.75;99652.13;3192129;88;21489;-74
2022/12/10 07:36:22;;;;;;;33.42;18.60;;;;;;;0.15;89.75;99654.40;3170261;88;21057;-74
2022/12/10 07:41:13;;;;;;;33.65;17.87;;;;;;;0.18;89.75;99651.98;3188855;88;20992;-74
2022/12/10 07:46:22;;;;;;;27.32;15.00;;;;;;;0.21;89.83;99662.72;3117086;89;20983;-74
2022/12/10 07:51:14;;;;;;;40.67;19.12;;;;;;;0.24;89.83;99664.14;3184346;88;21618;-74
2022/12/10 07:56:06;;;;;;;34.73;20.05;;;;;;;0.25;89.77;99663.34;3181831;87;21002;-74
2022/12/10 08:00:57;;;;;;;40.92;20.72;;;;;;;0.29;89.82;99663.92;3241123;87;21165;-74
2022/12/10 08:05:48;;;;;;;39.23;20.37;;;;;;;0.31;89.74;99657.59;3163902;88;21312;-74
2022/12/10 08:10:39;;;;;;;40.15;18.77;;;;;;;0.35;89.82;99650.52;3234182;87;21001;-74
2022/12/10 08:15:31;;;;;;;45.33;21.65;;;;;;;0.38;89.81;99650.23;3237953;87;20958;-74
2022/12/10 08:20:25;;;;;;;37.42;19.35;;;;;;;0.41;89.76;99648.61;3222372;87;20952;-74
2022/12/10 08:25:16;;;;;;;35.33;18.65;;;;;;;0.44;89.78;99652.58;3255426;87;21054;-74
2022/12/10 08:30:08;;;;;;;45.48;22.77;;;;;;;0.48;89.72;99654.02;3232071;87;20994;-74
2022/12/10 08:34:59;;;;;;;38.92;19.35;;;;;;;0.51;89.68;99646.89;3212405;86;21007;-73
2022/12/10 08:39:51;;;;;;;41.10;20.80;;;;;;;0.56;89.64;99650.09;3193296;86;21125;-74
2022/12/10 08:44:42;;;;;;;36.30;19.55;;;;;;;0.57;89.55;99659.91;3244576;87;21577;-74
2022/12/10 08:49:33;;;;;;;46.65;19.85;;;;;;;0.56;89.50;99657.77;3181606;88;21182;-74
2022/12/10 08:54:24;;;;;;;40.90;19.98;;;;;;;0.57;89.60;99667.59;3205956;88;20998;-73
2022/12/10 08:59:15;;;;;;;38.55;19.55;;;;;;;0.58;89.54;99659.11;3204024;87;21087;-74
2022/12/10 09:04:06;;;;;;;39.13;19.15;;;;;;;0.60;89.56;99652.38;3110956;89;21548;-74
2022/12/10 09:08:57;;;;;;;40.35;19.62;;;;;;;0.58;89.46;99655.28;3221208;87;21496;-74
2022/12/10 09:13:49;;;;;;;36.83;17.40;;;;;;;0.59;89.46;99659.59;3205265;87;21982;-74
2022/12/10 09:18:40;;;;;;;38.70;19.17;;;;;;;0.60;89.50;99660.46;3205615;86;21052;-74
2022/12/10 09:23:31;;;;;;;36.90;19.82;;;;;;;0.62;89.49;99663.53;3176225;88;21027;-74
2022/12/10 09:28:22;;;;;;;40.23;19.48;;;;;;;0.59;89.44;99664.72;3187333;86;21100;-74
2022/12/10 09:33:13;;;;;;;44.23;22.55;;;;;;;0.59;89.44;99664.72;3216590;86;21535;-74
2022/12/10 09:38:04;;;;;;;41.63;20.57;;;;;;;0.64;89.49;99672.14;3185990;88;21074;-74
2022/12/10 09:43:34;;;;;;;36.65;18.52;;;;;;;0.66;89.54;99672.20;3190613;88;21738;-74
2022/12/10 09:49:03;;;;;;;38.35;21.07;;;;;;;0.66;89.54;99667.98;3209054;87;20957;-75
2022/12/10 09:54:02;;;;;;;41.40;19.23;;;;;;;0.66;89.44;99644.95;3255771;87;21610;-75
2022/12/10 09:58:52;;;;;;;41.05;19.35;;;;;;;0.68;89.52;99653.56;3239339;87;21299;-74
2022/12/10 10:03:43;;;;;;;44.75;22.05;;;;;;;0.69;89.39;99674.48;3226198;87;21206;-75
2022/12/10 10:08:54;;;;;;;40.70;20.23;;;;;;;0.70;89.36;99683.05;3222422;87;21008;-74
2022/12/10 10:13:57;;;;;;;43.83;20.60;;;;;;;0.71;89.43;99697.16;3158286;88;21018;-74
2022/12/10 10:19:13;;;;;;;34.35;18.27;;;;;;;0.71;89.43;99692.03;3241180;86;20997;-74
2022/12/10 10:24:07;;;;;;;;;;;;;;;0.73;89.37;99696.84;3259642;85;20995;-74
2022/12/10 10:29:05;;;;;;;41.55;21.12;;;;;;;0.76;89.42;99700.77;3253193;87;21288;-74
2022/12/10 10:34:08;;;;;;;35.05;19.17;;;;;;;0.78;89.36;99693.16;3205047;87;21568;-74
2022/12/10 10:39:20;;;;;;;40.15;19.87;;;;;;;0.81;89.09;99691.15;3241891;86;21056;-75
2022/12/10 10:44:21;;;;;;;41.28;22.62;;;;;;;0.84;89.13;99679.73;3210656;87;22044;-75
2022/12/10 10:49:20;;;;;;;40.75;21.07;;;;;;;0.89;89.03;99675.25;3217571;86;21126;-75
2022/12/10 10:54:11;;;;;;;40.03;20.32;;;;;;;0.92;88.96;99671.55;3213657;87;21064;-75
2022/12/10 10:59:17;;;;;;;40.50;21.40;;;;;;;0.96;88.83;99654.62;3176097;88;21064;-74
2022/12/10 11:04:08;;;;;;;34.95;19.42;;;;;;;1.02;88.77;99652.31;3189439;87;21042;-74
2022/12/10 11:08:59;;;;;;;39.92;19.02;;;;;;;1.04;88.52;99636.59;3114293;89;20985;-75
2022/12/10 11:13:51;;;;;;;36.17;19.32;;;;;;;1.04;88.46;99643.00;3142323;88;21000;-74
2022/12/10 11:18:57;;;;;;;40.55;20.68;;;;;;;1.05;88.48;99630.64;3201275;87;21105;-74
2022/12/10 11:23:54;;;;;;;40.83;21.90;;;;;;;1.07;88.49;99622.64;3144136;88;21049;-75
2022/12/10 11:29:08;;;;;;;32.10;18.15;;;;;;;1.14;88.40;99619.87;3113161;89;21074;-75
2022/12/10 11:34:16;;;;;;;31.82;17.90;;;;;;;1.22;88.24;99616.34;3201026;84;21006;-75
2022/12/10 11:39:13;;;;;;;34.85;18.48;;;;;;;1.21;88.10;99610.74;3190421;88;21048;-75
2022/12/10 11:44:22;;;;;;;40.70;21.23;;;;;;;1.18;87.94;99606.78;3225323;87;21298;-74
2022/12/10 11:49:43;;;;;;;36.33;20.40;;;;;;;1.11;87.97;99607.84;3218957;87;21091;-74
2022/12/10 11:54:55;;;;;;;34.70;19.90;;;;;;;1.09;88.14;99610.77;3227433;87;21044;-75
2022/12/10 11:59:57;;;;;;;36.70;19.82;;;;;;;1.14;87.95;99610.53;3221507;86;22190;-75
2022/12/10 12:05:33;;;;;;;32.93;19.70;;;;;;;1.13;87.90;99624.14;3201129;87;21225;-75
2022/12/10 12:10:50;;;;;;;32.80;19.50;;;;;;;1.11;87.87;99627.05;3221476;88;21246;-74
2022/12/10 12:15:58;;;;;;;34.37;19.60;;;;;;;1.11;87.96;99634.73;3134636;90;21053;-75
2022/12/10 12:20:57;;;;;;;36.35;19.17;;;;;;;1.07;87.95;99645.68;3128194;89;20983;-75
2022/12/10 12:25:56;;;;;;;36.70;19.17;;;;;;;1.03;87.71;99651.48;3126765;90;21102;-76
2022/12/10 12:30:52;;;;;;;41.25;20.95;;;;;;;1.01;87.95;99649.27;3117598;89;21720;-75
2022/12/10 12:36:16;;;;;;;43.57;21.83;;;;;;;1.06;88.06;99650.32;3038197;92;21060;-75
2022/12/10 12:41:32;;;;;;;35.38;22.73;;;;;;;1.04;87.89;99651.06;3104394;90;21070;-75
2022/12/10 12:46:41;;;;;;;38.75;21.62;;;;;;;1.03;87.94;99650.20;3109257;90;21014;-75
2022/12/10 12:51:40;;;;;;;39.75;20.90;;;;;;;1.02;88.08;99663.83;3178095;88;21367;-75
2022/12/10 12:57:00;;;;;;;41.30;22.02;;;;;;;1.01;87.99;99671.03;3194743;87;21662;-75
2022/12/10 13:01:59;;;;;;;43.05;24.35;;;;;;;0.99;88.10;99677.78;3245111;87;21940;-75
2022/12/10 13:07:16;;;;;;;43.45;21.65;;;;;;;0.98;88.08;99673.47;3201032;86;21005;-75
2022/12/10 13:12:18;;;;;;;42.78;21.60;;;;;;;0.96;88.02;99676.38;3157054;89;21065;-75
2022/12/10 13:17:37;;;;;;;41.90;20.05;;;;;;;0.94;87.96;99675.45;3205228;88;21000;-75
2022/12/10 13:22:44;;;;;;;;;;;;;;;0.89;87.76;99685.91;3191046;87;21799;-75
2022/12/10 13:27:36;;;;;;;35.88;18.75;;;;;;;0.86;87.79;99681.94;3211192;88;21148;-75
2022/12/10 13:32:36;;;;;;;36.05;19.52;;;;;;;0.82;87.75;99701.83;3175924;88;21587;-75
2022/12/10 13:37:31;;;;;;;39.20;20.20;;;;;;;0.81;87.89;99707.78;3198445;88;21566;-75
2022/12/10 13:47:52;;;;;;;36.10;20.12;;;;;;;0.81;87.86;99714.19;3226516;87;21085;-75
2022/12/10 13:53:09;;;;;;;36.23;19.40;;;;;;;0.80;87.89;99718.81;3251626;84;21117;-75
2022/12/10 13:58:06;;;;;;;35.48;20.48;;;;;;;0.78;87.81;99717.89;3164026;88;20980;-75
2022/12/10 14:03:23;;;;;;;39.37;21.83;;;;;;;0.76;87.87;99718.69;3208344;87;21031;-75
2022/12/10 14:08:19;;;;;;;43.13;21.42;;;;;;;0.78;88.08;99721.73;3271237;86;20969;-75
2022/12/10 14:13:15;;;;;;;41.90;23.27;;;;;;;0.76;88.06;99723.80;3247778;87;20976;-75
2022/12/10 14:18:11;;;;;;;49.80;24.55;;;;;;;0.74;88.00;99733.52;3235586;87;21783;-75
2022/12/10 14:28:18;;;;;;;45.60;24.50;;;;;;;0.67;88.00;99721.30;3222105;87;20922;-75
2022/12/10 14:33:14;;;;;;;45.25;23.70;;;;;;;0.65;88.00;99709.72;3244730;87;21022;-76
2022/12/10 14:38:06;;;;;;;44.37;23.60;;;;;;;0.62;88.06;99702.32;3209634;88;21031;-77
2022/12/10 14:43:17;;;;;;;42.60;23.98;;;;;;;0.61;88.07;99701.45;3217158;87;22254;-75
2022/12/10 14:48:12;;;;;;;45.90;25.30;;;;;;;0.59;87.98;99709.48;3215505;87;21071;-76
2022/12/10 14:53:09;;;;;;;39.15;22.17;;;;;;;0.58;87.95;99704.30;3257407;86;21528;-75
2022/12/10 14:58:04;;;;;;;41.47;23.30;;;;;;;0.55;87.88;99702.47;3234593;87;21088;-75
2022/12/10 15:03:00;;;;;;;39.88;23.30;;;;;;;0.52;87.98;99689.55;3235233;85;21244;-76
2022/12/10 15:08:05;;;;;;;39.67;22.73;;;;;;;0.51;87.91;99695.49;3228360;86;21160;-76
2022/12/10 15:12:57;;;;;;;36.13;22.87;;;;;;;0.50;87.98;99700.12;3229155;85;21025;-75
2022/12/10 15:18:09;;;;;;;43.08;24.98;;;;;;;0.51;87.96;99710.84;3219295;87;21007;-75
2022/12/10 15:23:30;;;;;;;43.45;26.02;;;;;;;0.50;87.98;99712.91;3247951;87;21628;-75
2022/12/10 15:28:31;;;;;;;43.33;26.27;;;;;;;0.51;87.92;99709.56;3234942;85;21064;-76
2022/12/10 15:33:36;;;;;;;44.63;25.77;;;;;;;0.52;87.94;99699.78;3123462;89;21556;-75
2022/12/10 15:38:28;;;;;;;44.83;25.95;;;;;;;0.48;87.68;99688.96;3145279;89;21615;-76
2022/12/10 15:43:29;;;;;;;39.45;22.75;;;;;;;0.44;87.76;99708.42;3233475;84;21510;-76
2022/12/10 15:48:21;;;;;;;38.63;24.67;;;;;;;0.43;87.52;99709.63;3198431;88;21530;-76
2022/12/10 15:53:16;;;;;;;38.65;23.10;;;;;;;0.44;87.75;99720.34;3161318;88;21000;-76
2022/12/10 15:58:13;;;;;;;38.78;24.35;;;;;;;0.46;87.78;99735.34;3201441;88;21074;-75
2022/12/10 16:03:05;;;;;;;38.42;23.55;;;;;;;0.49;87.62;99740.59;3199331;88;21078;-75
2022/12/10 16:08:01;;;;;;;38.65;24.35;;;;;;;0.49;87.55;99717.58;3176758;88;21013;-75
2022/12/10 16:13:00;;;;;;;49.40;29.35;;;;;;;0.47;87.55;99721.77;3181522;87;21062;-75
2022/12/10 16:17:51;;;;;;;38.85;26.05;;;;;;;0.48;87.42;99731.16;3202254;88;21019;-75
2022/12/10 16:22:42;;;;;;;43.50;25.50;;;;;;;0.47;87.54;99730.71;3159837;88;21944;-75
2022/12/10 16:28:23;;;;;;;37.13;24.25;;;;;;;0.50;87.56;99725.70;3228238;86;20929;-77
2022/12/10 16:33:19;;;;;;;42.15;26.12;;;;;;;0.51;87.44;99719.79;3198322;87;20927;-75
2022/12/10 16:38:12;;;;;;;33.88;23.12;;;;;;;0.50;87.40;99733.38;3159108;88;22192;-76
2022/12/10 16:43:03;;;;;;;37.30;24.85;;;;;;;0.50;87.35;99726.98;3101212;89;21506;-75
2022/12/10 16:47:54;;;;;;;38.83;24.55;;;;;;;0.49;87.35;99740.59;3128332;88;21016;-75
2022/12/10 16:52:45;;;;;;;38.73;24.63;;;;;;;0.49;87.29;99745.71;3149676;88;21538;-76
2022/12/10 16:57:39;;;;;;;36.60;23.65;;;;;;;0.46;87.26;99743.88;3179277;88;21511;-75
2022/12/10 17:02:30;;;;;;;38.73;23.95;;;;;;;0.47;87.30;99746.06;3155418;88;21008;-75
2022/12/10 17:07:21;;;;;;;41.60;25.45;;;;;;;0.47;87.39;99742.22;3150105;88;21001;-75
2022/12/10 17:12:13;;;;;;;39.35;24.02;;;;;;;0.44;87.16;99758.30;3203470;86;21548;-76
2022/12/10 17:17:06;;;;;;;42.88;25.45;;;;;;;0.45;87.33;99763.00;3199214;87;21017;-76
2022/12/10 17:21:58;;;;;;;37.42;25.17;;;;;;;0.44;87.40;99764.69;3180961;88;20972;-76
2022/12/10 17:26:51;;;;;;;38.95;25.05;;;;;;;0.44;87.16;99754.88;3192288;86;21076;-76
2022/12/10 17:31:44;;;;;;;36.15;23.30;;;;;;;0.41;87.27;99749.63;3196169;87;21119;-76
2022/12/10 17:36:35;;;;;;;38.63;24.02;;;;;;;0.37;87.18;99756.29;3201025;88;21745;-76
2022/12/10 17:41:26;;;;;;;43.83;30.35;;;;;;;0.37;87.22;99749.89;3156180;88;21120;-76
2022/12/10 17:46:22;;;;;;;38.98;24.90;;;;;;;0.34;87.25;99754.48;3177175;88;21694;-75
2022/12/10 17:51:13;;;;;;;42.57;26.73;;;;;;;0.35;87.32;99758.77;3159464;87;20953;-75
2022/12/10 17:56:15;;;;;;;36.70;24.18;;;;;;;0.38;87.45;99760.20;3130855;88;21609;-76
2022/12/10 18:01:09;;;;;;;40.52;25.97;;;;;;;0.40;87.25;99760.68;3203655;87;21594;-76
2022/12/10 18:06:00;;;;;;;39.95;26.35;;;;;;;0.40;87.23;99757.70;3162982;88;21037;-76
2022/12/10 18:10:56;;;;;;;36.33;23.60;;;;;;;0.38;87.20;99761.89;3180149;88;21090;-76
2022/12/10 18:15:47;;;;;;;40.60;25.97;;;;;;;0.39;87.15;99759.78;3208669;86;21001;-76
2022/12/10 18:20:41;;;;;;;39.85;24.63;;;;;;;0.36;87.09;99748.17;3178357;87;21074;-76
2022/12/10 18:25:32;;;;;;;42.05;26.25;;;;;;;0.36;87.24;99760.53;3204848;87;22900;-76
2022/12/10 18:30:24;;;;;;;37.25;22.85;;;;;;;0.38;87.33;99763.16;3153394;88;20994;-76
2022/12/10 18:35:16;;;;;;;35.83;23.07;;;;;;;0.39;87.22;99772.56;3198858;87;21027;-75
2022/12/10 18:40:18;;;;;;;36.90;22.62;;;;;;;0.37;87.15;99748.62;3222658;87;21010;-75
2022/12/10 18:45:11;;;;;;;35.75;23.30;;;;;;;0.31;87.08;99744.13;3222740;87;20995;-76
2022/12/10 18:50:03;;;;;;;33.33;23.60;;;;;;;0.29;87.09;99761.09;3245902;86;21083;-75
2022/12/10 18:54:54;;;;;;;51.53;29.05;;;;;;;0.26;87.06;99753.69;3235736;86;22107;-76
2022/12/10 18:59:45;;;;;;;111.90;52.35;;;;;;;0.25;87.00;99763.05;3233221;87;21023;-76
2022/12/10 19:04:36;;;;;;;47.35;24.87;;;;;;;0.21;86.99;99756.03;3214234;87;21103;-76
2022/12/10 19:09:28;;;;;;;62.55;34.55;;;;;;;0.22;87.11;99753.09;3236151;86;22052;-76
2022/12/10 19:14:22;;;;;;;61.63;35.45;;;;;;;0.18;86.98;99758.48;3206196;86;22280;-75
2022/12/10 19:19:18;;;;;;;52.50;30.32;;;;;;;0.16;86.95;99774.13;3230633;85;21044;-76
2022/12/10 19:24:10;;;;;;;42.90;27.15;;;;;;;0.15;86.94;99773.68;3253273;87;21033;-76
2022/12/10 19:29:12;;;;;;;43.35;25.25;;;;;;;0.14;87.12;99757.48;3246783;87;21714;-76
2022/12/10 19:34:04;;;;;;;39.70;24.37;;;;;;;0.13;86.86;99774.89;3267476;86;21495;-76
2022/12/10 19:38:55;;;;;;;36.73;23.90;;;;;;;0.09;86.97;99774.30;3118590;89;21249;-75
2022/12/10 19:43:46;;;;;;;42.93;25.10;;;;;;;0.10;87.10;99781.13;3169207;88;21018;-76
2022/12/10 19:48:38;;;;;;;36.85;22.10;;;;;;;0.09;86.96;99781.96;3179023;88;21043;-76
2022/12/10 19:53:29;;;;;;;39.60;24.37;;;;;;;0.12;87.09;99782.48;3154799;88;21013;-75
2022/12/10 19:58:20;;;;;;;34.67;23.70;;;;;;;0.14;87.08;99791.09;3110914;89;21024;-76
2022/12/10 20:03:11;;;;;;;38.63;23.02;;;;;;;0.10;86.81;99781.55;3157412;89;21046;-75
2022/12/10 20:08:02;;;;;;;34.03;21.93;;;;;;;0.05;86.83;99788.13;3241551;87;21043;-75
2022/12/10 20:12:54;;;;;;;37.28;22.82;;;;;;;0.04;86.99;99782.16;3190049;87;21032;-76
2022/12/10 20:17:45;;;;;;;35.78;21.97;;;;;;;0.08;87.13;99795.95;3215168;87;21081;-75
2022/12/10 20:22:36;;;;;;;34.63;20.37;;;;;;;0.10;87.18;99779.86;3204795;87;21008;-76
2022/12/10 20:27:27;;;;;;;35.45;21.15;;;;;;;0.08;86.88;99772.94;3182163;88;21032;-75
2022/12/10 20:32:19;;;;;;;39.25;24.87;;;;;;;0.01;86.93;99779.45;3196132;87;21955;-76
2022/12/10 20:37:12;;;;;;;43.28;22.22;;;;;;;-0.03;86.92;99773.34;3210958;86;21005;-75
2022/12/10 20:42:03;;;;;;;39.53;24.23;;;;;;;-0.07;87.08;99755.23;3190870;87;21073;-75
2022/12/10 20:46:56;;;;;;;47.27;30.35;;;;;;;-0.07;87.17;99750.13;3203025;88;21630;-76
2022/12/10 20:51:48;;;;;;;41.63;24.52;;;;;;;-0.10;87.12;99750.02;3196152;86;21690;-75
2022/12/10 20:56:40;;;;;;;37.55;23.35;;;;;;;-0.12;87.17;99742.27;3164681;88;21564;-75
2022/12/10 21:01:31;;;;;;;35.38;22.40;;;;;;;-0.14;87.29;99751.55;3200758;88;21020;-76
2022/12/10 21:06:27;;;;;;;36.42;21.23;;;;;;;-0.14;87.19;99751.55;3168854;88;21067;-76
2022/12/10 21:11:19;;;;;;;33.15;20.32;;;;;;;-0.17;86.95;99751.83;3184602;88;21108;-75
2022/12/10 21:16:14;;;;;;;35.60;20.97;;;;;;;-0.22;87.12;99757.58;3202920;88;21411;-76
2022/12/10 21:21:07;;;;;;;32.95;20.10;;;;;;;-0.23;87.09;99745.63;3183447;88;20995;-75
2022/12/10 21:25:58;;;;;;;33.00;20.55;;;;;;;-0.24;87.02;99749.39;3228034;87;20961;-75
2022/12/10 21:30:49;;;;;;;34.38;19.82;;;;;;;-0.27;87.00;99744.13;3266822;85;21498;-75
2022/12/10 21:35:41;;;;;;;35.55;19.30;;;;;;;-0.29;86.97;99746.62;3235328;87;21450;-75
2022/12/10 21:40:32;;;;;;;35.80;20.17;;;;;;;-0.31;86.88;99747.37;3252905;86;21018;-75
2022/12/10 21:45:28;;;;;;;38.35;20.45;;;;;;;-0.34;86.80;99738.28;3176626;88;21689;-76
2022/12/10 21:50:20;;;;;;;34.35;20.85;;;;;;;-0.34;86.78;99739.55;3191620;88;21095;-76
2022/12/10 21:55:20;;;;;;;36.42;22.85;;;;;;;-0.33;87.07;99731.10;3241873;87;21294;-75
2022/12/10 22:00:12;;;;;;;28.15;17.35;;;;;;;-0.27;87.15;99728.81;3226796;86;21395;-75
2022/12/10 22:05:04;;;;;;;33.50;20.50;;;;;;;-0.32;86.71;99726.06;3221593;86;21549;-76
2022/12/10 22:09:55;;;;;;;30.23;17.45;;;;;;;-0.33;86.85;99729.41;3229417;86;21067;-76
2022/12/10 22:14:46;;;;;;;35.85;19.00;;;;;;;-0.35;86.69;99731.44;3252828;85;21575;-76
2022/12/10 22:19:38;;;;;;;33.08;19.70;;;;;;;-0.36;86.71;99743.73;3207072;85;21515;-75
2022/12/10 22:24:31;;;;;;;29.98;17.17;;;;;;;-0.35;86.85;99746.77;3133985;88;21093;-75
2022/12/10 22:29:23;;;;;;;31.87;19.05;;;;;;;-0.37;86.58;99739.03;3225803;86;21266;-75
2022/12/10 22:34:15;;;;;;;36.10;22.85;;;;;;;-0.37;86.78;99733.06;3207102;87;20997;-76
2022/12/10 22:39:06;;;;;;;32.67;22.25;;;;;;;-0.35;86.80;99738.70;3117953;89;21564;-75
2022/12/10 22:44:18;;;;;;;30.88;18.85;;;;;;;-0.37;86.66;99735.61;3177865;88;21600;-75
2022/12/10 22:49:09;;;;;;;37.38;23.20;;;;;;;-0.36;86.80;99722.88;3160828;89;21988;-75
2022/12/10 22:54:01;;;;;;;38.05;22.58;;;;;;;-0.36;86.89;99718.19;3138976;89;21124;-75
2022/12/10 22:58:54;;;;;;;38.65;22.07;;;;;;;-0.40;86.62;99723.15;3094089;89;21061;-75
2022/12/10 23:03:46;;;;;;;42.90;22.13;;;;;;;-0.39;86.94;99709.59;3147338;90;21029;-75
2022/12/10 23:08:38;;;;;;;38.83;21.95;;;;;;;-0.36;86.98;99702.86;3103060;89;21077;-75